Portalegre, Brazil
Current Conditions -  °F | °C
As of 3:00 PM on Sunday 21 Dec 2014 (Local Time) from SBJU Reporting Station
Scattered Clouds Scattered Clouds  
Wind Chill: 95°   Ceiling: Unl
Heat Index: 97°   Visibility: 6mi
Dew Point: 64°   Wind: 8mph
Humidity: 36%   Direction: 120°ESE
Pressure: 29.94"   Gusts: NA
Location:  6.02°S, 37.99°W
Report Text: SBJU 211800Z 12007KT 9999 SCT023 35/18 Q1014
Loading
Personal Weather Stations






























Interactive Weather Map New forecast layout! Learn more

10-Day Weather Forecast

Advertisements
Track Severe Weather on mobile